Time,TemperatureF,DewpointF,PressureIn,WindDirection,WindDirectionDegrees,WindSpeedMPH,WindSpeedGustMPH,Humidity,HourlyPrecipIn,Conditions,Clouds,dailyrainin,SoftwareType,DateUTC
2013-07-05 01:10:00,73.0,71.0,30.23,West,277,0.0,0.0,95,0.00,,,0.00,,2013-07-05 05:10:00,
2013-07-05 01:33:00,73.0,71.0,30.23,West,277,0.0,0.0,95,0.00,,,0.00,,2013-07-05 05:33:00,
2013-07-05 01:43:00,73.0,71.0,30.23,West,277,0.0,0.0,95,0.00,,,0.00,,2013-07-05 05:43:00,
2013-07-05 01:52:00,73.0,71.0,30.23,West,277,0.0,0.0,95,0.00,,,0.00,,2013-07-05 05:52:00,
2013-07-05 02:02:00,73.0,71.0,30.23,West,277,0.0,0.0,95,0.00,,,0.00,,2013-07-05 06:02:00,
2013-07-05 02:23:00,72.0,71.0,30.23,West,277,0.0,0.0,96,0.00,,,0.00,,2013-07-05 06:23:00,
2013-07-05 02:34:00,72.0,71.0,30.23,West,277,0.0,0.0,96,0.00,,,0.00,,2013-07-05 06:34:00,
2013-07-05 02:44:00,72.0,71.0,30.23,West,277,0.0,0.0,96,0.00,,,0.00,,2013-07-05 06:44:00,
2013-07-05 02:53:00,72.0,71.0,30.23,West,277,0.0,0.0,96,0.00,,,0.00,,2013-07-05 06:53:00,
2013-07-05 03:02:00,73.0,72.0,30.22,West,277,0.0,3.0,97,0.00,,,0.00,,2013-07-05 07:02:00,
2013-07-05 03:23:00,73.0,72.0,30.22,West,277,0.0,3.0,97,0.00,,,0.00,,2013-07-05 07:23:00,
2013-07-05 03:34:00,73.0,72.0,30.22,West,277,0.0,3.0,97,0.00,,,0.00,,2013-07-05 07:34:00,
2013-07-05 03:43:00,73.0,72.0,30.22,West,277,0.0,3.0,97,0.00,,,0.00,,2013-07-05 07:43:00,
2013-07-05 03:53:00,73.0,72.0,30.22,West,277,0.0,3.0,97,0.00,,,0.00,,2013-07-05 07:53:00,
2013-07-05 04:01:00,73.0,72.0,30.22,NE,51,0.0,1.0,97,0.01,,,0.01,,2013-07-05 08:01:00,
2013-07-05 04:23:00,73.0,72.0,30.22,NE,51,0.0,1.0,97,0.01,,,0.01,,2013-07-05 08:23:00,
2013-07-05 04:33:00,73.0,72.0,30.22,NE,51,0.0,1.0,97,0.01,,,0.01,,2013-07-05 08:33:00,
2013-07-05 04:44:00,73.0,72.0,30.22,NE,51,0.0,1.0,97,0.01,,,0.01,,2013-07-05 08:44:00,
2013-07-05 05:01:00,72.0,71.0,30.22,NE,51,0.0,0.0,97,0.00,,,0.01,,2013-07-05 09:01:00,
2013-07-05 05:28:00,72.0,71.0,30.22,NE,51,0.0,0.0,97,0.00,,,0.01,,2013-07-05 09:28:00,
2013-07-05 05:48:00,72.0,71.0,30.22,NE,51,0.0,0.0,97,0.00,,,0.01,,2013-07-05 09:48:00,
2013-07-05 05:57:00,72.0,71.0,30.22,NE,51,0.0,0.0,97,0.00,,,0.01,,2013-07-05 09:57:00,
2013-07-05 06:01:00,72.0,71.0,30.22,ENE,69,0.0,0.0,97,0.00,,,0.01,,2013-07-05 10:01:00,
2013-07-05 06:28:00,72.0,71.0,30.22,ENE,69,0.0,0.0,97,0.00,,,0.01,,2013-07-05 10:28:00,
2013-07-05 06:38:00,72.0,71.0,30.22,ENE,69,0.0,0.0,97,0.00,,,0.01,,2013-07-05 10:38:00,
2013-07-05 06:47:00,72.0,71.0,30.22,ENE,69,0.0,0.0,97,0.00,,,0.01,,2013-07-05 10:47:00,
2013-07-05 06:58:00,72.0,71.0,30.22,ENE,69,0.0,0.0,97,0.00,,,0.01,,2013-07-05 10:58:00,
2013-07-05 07:01:00,74.0,73.0,30.23,West,262,0.0,0.0,97,0.01,,,0.02,,2013-07-05 11:01:00,
2013-07-05 07:25:00,74.0,73.0,30.23,West,262,0.0,0.0,97,0.01,,,0.02,,2013-07-05 11:25:00,
2013-07-05 07:38:00,74.0,73.0,30.23,West,262,0.0,0.0,97,0.01,,,0.02,,2013-07-05 11:38:00,
2013-07-05 07:51:00,74.0,73.0,30.23,West,262,0.0,0.0,97,0.01,,,0.02,,2013-07-05 11:51:00,
2013-07-05 08:00:00,74.0,73.0,30.23,West,262,0.0,0.0,97,0.01,,,0.02,,2013-07-05 12:00:00,
2013-07-05 08:01:00,78.0,76.0,30.23,NW,322,0.0,1.0,95,0.00,,,0.02,,2013-07-05 12:01:00,
2013-07-05 08:27:00,78.0,76.0,30.23,NW,322,0.0,1.0,95,0.00,,,0.02,,2013-07-05 12:27:00,
2013-07-05 08:38:00,78.0,76.0,30.23,NW,322,0.0,1.0,95,0.00,,,0.02,,2013-07-05 12:38:00,
2013-07-05 08:51:00,78.0,76.0,30.23,NW,322,0.0,1.0,95,0.00,,,0.02,,2013-07-05 12:51:00,
2013-07-05 09:00:00,78.0,76.0,30.23,NW,322,0.0,1.0,95,0.00,,,0.02,,2013-07-05 13:00:00,
2013-07-05 09:01:00,81.0,77.0,30.22,West,275,0.0,3.0,88,0.00,,,0.02,,2013-07-05 13:01:00,
2013-07-05 09:26:00,81.0,77.0,30.22,West,275,0.0,3.0,88,0.00,,,0.02,,2013-07-05 13:26:00,
2013-07-05 09:39:00,81.0,77.0,30.22,West,275,0.0,3.0,88,0.00,,,0.02,,2013-07-05 13:39:00,
2013-07-05 09:58:00,81.0,77.0,30.22,West,275,0.0,3.0,88,0.00,,,0.02,,2013-07-05 13:58:00,